Aérodrome :
LOGIN :

S'inscrire | Disclaimer

   EN    FR    IT 

 










Légende :    VFR   VFR Marginal   IFR   IFR Intensif   IFR Très Intensif
Visi : 
Plafond : 
>= 8 km
>= 3000ft
5 à 8 km
1000 à 3000 ft
1500m à 5 km
500 à 1000 ft
800 à 1500m
200 à 500 ft
< 800m
< 200 ft
Symboles :   Orages  Brouillard  Fortes neiges  Fortes précipitations  Vent > 20 kt
SIGMETs :   Divers  Orages  Givrage  Turbulence  Onde Orograph.  Cendres Volcan.






- Altitude de l'aérodrome : 154 ft
- Code IATA : SZZ


EPSC - Szczecin Goleniow

DERNIER METAR :
  • 270600Z 11008KT CAVOK 15/13 Q1018

METARs EXPIRÉS :
  • 270530Z 11010KT CAVOK 14/13 Q1018
  • 270500Z 10008KT CAVOK 14/13 Q1018
  • 270430Z 10009KT CAVOK 14/13 Q1018
  • 270400Z 10011KT CAVOK 14/12 Q1019
  • 270330Z 11009KT CAVOK 14/12 Q1019

TAF TAF EPSC
Valide du 27 à 06h jusqu'au 28 à 06h UTC


270530Z 2706/2806 11010KT CAVOK
TEMPO 2721/2806 -SHRA BKN030CB
PROB30
TEMPO 2802/2806 3000 SHRA BKN014CB



MET'MAP, la Météo Aéronautique d'un coup d'oeil ! - Copyright ORBIFLY Décembre 2007 - Disclaimer

ORBIFLY MET'MAP TEAM :

Programmation & Développement : Alexandra Zaïnal
Sur une idée originale de : Baudouin d'Aumeries
Assistance à la programmation : Marc-Olivier Méhu
Soutien technique & logistique : Manuel Goepfert

Contact : metmap@orbifly.com




SOURCES & CREDITS :

   NOAA